Voidomatis — A8FX2 — position and weather

sailwx.info

Track history (hours):
 
Tides and Currents Weather Stations Pressure Air Temp Water Temp Dewpoint Dewpoint Depression Visibility Wind Speed Wind Dir Waves Ship Positions

Voidomatis

Last reported at 2016-Feb-05 08:08 UTC. Time now 2016-Feb-06 20:46 UTC.
Position N 50°31' E 000°04'.

Length 214 m; draft 12 m.

Type: Tanker. MMSI: 636012508.

Date/timePositionNaut miles runAvg speedWind from/ knotsBaromVisibWave heightAir tempDewpointWater temp
2016-Feb-05 08:08N 50°31' E 000°04'712.0
2016-Feb-05 07:32N 50°33' E 000°15'3712.0
2016-Feb-05 04:29N 50°50' E 001°07'1313.7
2016-Feb-05 03:33N 50°58' E 001°22'1414.0
2016-Feb-05 02:33N 51°08' E 001°38'1313.2
2016-Feb-05 01:33N 51°18' E 001°52'1010.4
2016-Feb-05 00:33N 51°24' E 002°05'1211.4
2016-Feb-04 23:32N 51°21' E 002°23'1211.5
2016-Feb-04 22:28N 51°23' E 002°42'9 9.5
2016-Feb-04 21:33N 51°25' E 002°56'10 9.7
2016-Feb-04 20:34N 51°24' E 003°11'9 9.3
2016-Feb-04 19:33N 51°25' E 003°26'8 8.1
2016-Feb-04 18:33N 51°26' E 003°39'8 7.9
2016-Feb-04 17:34N 51°21' E 003°48'9 8.7
2016-Feb-04 16:33N 51°26' E 003°59'8 7.6
2016-Feb-04 15:34N 51°24' E 004°11'5 5.0
2016-Feb-04 14:33N 51°21' E 004°17'0 0.0
2016-Feb-04 13:33N 51°21' E 004°17'3 2.7
2016-Feb-04 12:33N 51°18' E 004°19'2 2.3
2016-Feb-04 11:32N 51°16' E 004°21'0 0.0
2016-Feb-04 10:32N 51°16' E 004°21'0 0.0
2016-Feb-04 09:29N 51°16' E 004°21'0 0.0
2016-Feb-04 08:32N 51°16' E 004°21'0 0.0
2016-Feb-04 07:29N 51°16' E 004°21'0 0.0
2016-Feb-04 06:32N 51°16' E 004°21'0 0.0
2016-Feb-04 05:29N 51°16' E 004°21'0 0.0
2016-Feb-04 04:29N 51°16' E 004°21'0 0.0
2016-Feb-04 03:29N 51°16' E 004°21'0 0.0
2016-Feb-04 02:32N 51°16' E 004°21'0 0.0
2016-Feb-04 01:29N 51°16' E 004°21'0 0.0
2016-Feb-04 00:32N 51°16' E 004°21'0 0.0
2016-Feb-03 23:32N 51°16' E 004°21'0 0.0
2016-Feb-03 22:29N 51°16' E 004°21'0 0.0
2016-Feb-03 21:32N 51°16' E 004°21'0 0.0
2016-Feb-03 20:32N 51°16' E 004°21'0 0.0
2016-Feb-03 19:32N 51°16' E 004°21'0 0.0
2016-Feb-03 18:32N 51°16' E 004°21'0 0.0
2016-Feb-03 17:32N 51°16' E 004°21'0 0.0
2016-Feb-03 16:32N 51°16' E 004°21'0 0.0
2016-Feb-03 15:32N 51°16' E 004°21'0 0.0
2016-Feb-03 14:32N 51°16' E 004°21'0 0.0
2016-Feb-03 13:29N 51°16' E 004°21'0 0.0
2016-Feb-03 12:32N 51°16' E 004°21'0 0.0
2016-Feb-03 11:32N 51°16' E 004°21'0 0.0
2016-Feb-03 10:32N 51°16' E 004°21'0 0.0
2016-Feb-03 09:29N 51°16' E 004°21'0 0.0
2016-Feb-03 08:32N 51°16' E 004°21'0 0.0
2016-Feb-03 07:32N 51°16' E 004°21'0 0.0
2016-Feb-03 06:32N 51°16' E 004°21'0 0.0
2016-Feb-03 05:32N 51°16' E 004°21'0 0.0
2016-Feb-03 04:32N 51°16' E 004°21'0 0.0
2016-Feb-03 03:32N 51°16' E 004°21'0 0.0
2016-Feb-03 02:32N 51°16' E 004°21'0 0.0
2016-Feb-03 01:32N 51°16' E 004°21'0 0.0
2016-Feb-03 00:32N 51°16' E 004°21'0 0.0
2016-Feb-02 23:32N 51°16' E 004°21'0 0.0
2016-Feb-02 22:32N 51°16' E 004°21'0 0.0
2016-Feb-02 21:32N 51°16' E 004°21'0 0.0
2016-Feb-02 20:32N 51°16' E 004°21'0 0.0
2016-Feb-02 19:32N 51°16' E 004°21'0 0.0
2016-Feb-02 18:29N 51°16' E 004°21'0 0.0
2016-Feb-02 17:29N 51°16' E 004°21'0 0.0
2016-Feb-02 16:32N 51°16' E 004°21'0 0.0
2016-Feb-02 15:32N 51°16' E 004°21'0 0.0
2016-Feb-02 14:32N 51°16' E 004°21'0 0.0
2016-Feb-02 13:32N 51°16' E 004°21'0 0.0
2016-Feb-02 12:32N 51°16' E 004°21'0 0.0
2016-Feb-02 11:29N 51°16' E 004°21'0 0.0
2016-Feb-02 10:32N 51°16' E 004°21'0 0.0
2016-Feb-02 09:32N 51°16' E 004°21'0 0.0
2016-Feb-02 08:32N 51°16' E 004°21'3 3.1
2016-Feb-02 07:34N 51°19' E 004°19'2 2.0
2016-Feb-02 06:33N 51°21' E 004°17'1 0.9
2016-Feb-02 05:34N 51°21' E 004°16'8 7.6
2016-Feb-02 04:34N 51°22' E 004°04'7 7.2
2016-Feb-02 03:33N 51°21' E 003°53'1010.1
2016-Feb-02 02:33N 51°26' E 003°39'9 8.8
2016-Feb-02 01:34N 51°25' E 003°25'10 9.7
2016-Feb-02 00:34N 51°24' E 003°10'1010.3
2016-Feb-01 23:33N 51°25' E 002°53'7 6.4
2016-Feb-01 22:32N 51°26' E 002°43'5 4.8
2016-Feb-01 21:32N 51°30' E 002°47'4 3.6
2016-Feb-01 20:25N 51°27' E 002°44'4 4.3
2016-Feb-01 19:31N 51°26' E 002°38'0 0.1
2016-Feb-01 18:31N 51°26' E 002°38'0 0.1
2016-Feb-01 17:31N 51°26' E 002°38'0 0.0
2016-Feb-01 16:29N 51°26' E 002°38'0 0.0
2016-Feb-01 15:31N 51°26' E 002°38'0 0.1
2016-Feb-01 14:22N 51°26' E 002°38'0 0.0
2016-Feb-01 13:25N 51°26' E 002°38'0 0.0
2016-Feb-01 12:22N 51°26' E 002°38'0 0.1
2016-Feb-01 11:32N 51°26' E 002°38'0 0.1
2016-Feb-01 10:25N 51°26' E 002°38'0 0.1
2016-Feb-01 09:16N 51°26' E 002°38'0 0.0
2016-Feb-01 08:31N 51°26' E 002°38'0 0.0
2016-Feb-01 07:28N 51°26' E 002°38'0 0.0
2016-Feb-01 06:17N 51°26' E 002°38'0 0.0
2016-Feb-01 05:31N 51°26' E 002°38'0 0.0
2016-Feb-01 04:17N 51°26' E 002°38'0 0.0
2016-Feb-01 03:28N 51°26' E 002°38'0 0.0
2016-Feb-01 02:25N 51°26' E 002°38'0 0.0
2016-Jan-31 23:13N 51°26' E 002°38'0 0.2
2016-Jan-31 22:19N 51°25' E 002°38'0 0.1
2016-Jan-31 21:25N 51°26' E 002°38'0 0.1
2016-Jan-31 20:25N 51°26' E 002°38'0 0.1
2016-Jan-31 19:31N 51°26' E 002°38'0 0.0
2016-Jan-31 18:19N 51°26' E 002°38'0 0.0
2016-Jan-31 17:25N 51°26' E 002°38'0 0.1
2016-Jan-31 16:31N 51°26' E 002°38'0 0.0
2016-Jan-31 15:31N 51°26' E 002°38'0 0.0
2016-Jan-31 14:31N 51°26' E 002°38'0 0.2
2016-Jan-31 13:28N 51°26' E 002°37'0 0.0
2016-Jan-31 12:31N 51°25' E 002°37'0 0.0
2016-Jan-31 11:28N 51°26' E 002°37'0 0.1
2016-Jan-31 10:22N 51°26' E 002°38'0 0.1
2016-Jan-31 09:22N 51°26' E 002°38'0 0.0
2016-Jan-31 08:31N 51°26' E 002°38'0 0.0
2016-Jan-31 07:31N 51°26' E 002°38'0 0.0
2016-Jan-31 06:31N 51°26' E 002°38'0 0.0
2016-Jan-31 05:31N 51°26' E 002°38'0 0.0
2016-Jan-31 04:19N 51°25' E 002°38'0 0.0
2016-Jan-31 03:31N 51°26' E 002°38'0 0.0
2016-Jan-31 02:25N 51°25' E 002°38'0 0.1
2016-Jan-31 01:25N 51°25' E 002°38'0 0.0
2016-Jan-31 00:31N 51°25' E 002°38'0 0.0
2016-Jan-30 23:25N 51°25' E 002°38'0 0.0
2016-Jan-30 22:31N 51°25' E 002°38'0 0.0
2016-Jan-30 21:31N 51°25' E 002°38'0 0.0
2016-Jan-30 20:32N 51°25' E 002°38'0 0.0
2016-Jan-30 19:28N 51°26' E 002°38'0 0.0
2016-Jan-30 18:28N 51°26' E 002°38'0 0.0
2016-Jan-30 17:19N 51°26' E 002°38'0 0.0
2016-Jan-30 16:28N 51°25' E 002°38'0 0.0
2016-Jan-30 15:31N 51°25' E 002°38'0 0.0
2016-Jan-30 14:31N 51°25' E 002°38'0 0.1
2016-Jan-30 13:31N 51°25' E 002°38'0 0.0
2016-Jan-30 12:31N 51°25' E 002°38'0 0.0
2016-Jan-30 11:28N 51°25' E 002°38'3 3.3
2016-Jan-30 10:33N 51°27' E 002°42'4 4.3
2016-Jan-30 09:33N 51°31' E 002°44'6 5.8
2016-Jan-30 08:32N 51°36' E 002°49'5 5.2
2016-Jan-30 07:33N 51°40' E 002°53'5 4.7
2016-Jan-30 06:32N 51°43' E 002°59'3 3.1
2016-Jan-30 05:31N 51°45' E 003°03'2 2.2
2016-Jan-30 04:34N 51°47' E 003°06'2 2.2
2016-Jan-30 03:32N 51°48' E 003°09'3 3.5
2016-Jan-30 02:33N 51°50' E 003°13'16 4.6
2016-Jan-29 23:11N 52°02' E 003°28'4 5.8
2016-Jan-29 22:33N 52°03' E 003°34'6 5.8
2016-Jan-29 21:33N 52°03' E 003°43'6 5.8
2016-Jan-29 20:33N 52°03' E 003°53'4 3.6
2016-Jan-29 19:33N 52°01' E 003°58'7 6.7
2016-Jan-29 18:33N 51°58' E 004°07'4 4.4
2016-Jan-29 17:32N 51°55' E 004°13'0 0.0
2016-Jan-29 16:32N 51°55' E 004°13'0 0.0
2016-Jan-29 15:26N 51°55' E 004°13'0 0.0
2016-Jan-29 14:32N 51°55' E 004°13'0 0.0
2016-Jan-29 13:29N 51°55' E 004°13'0 0.0
2016-Jan-29 12:20N 51°55' E 004°13'0 0.0
2016-Jan-29 11:32N 51°55' E 004°13'0 0.0
2016-Jan-29 10:29N 51°55' E 004°13'0 0.0
2016-Jan-29 09:23N 51°55' E 004°13'0 0.0
2016-Jan-29 08:32N 51°55' E 004°13'0 0.0
2016-Jan-29 07:32N 51°55' E 004°13'0 0.0
2016-Jan-29 06:32N 51°55' E 004°13'0 0.0
2016-Jan-29 05:32N 51°55' E 004°13'0 0.0
2016-Jan-29 04:32N 51°55' E 004°13'0 0.0
2016-Jan-29 03:32N 51°55' E 004°13'0 0.0
2016-Jan-29 02:32N 51°55' E 004°13'0 0.0
2016-Jan-29 01:32N 51°55' E 004°13'0 0.0
2016-Jan-29 00:29N 51°55' E 004°13'0 0.0
2016-Jan-28 23:29N 51°55' E 004°13'0 0.0
2016-Jan-28 22:32N 51°55' E 004°13'0 0.0
2016-Jan-28 21:32N 51°55' E 004°13'0 0.0
2016-Jan-28 20:32N 51°55' E 004°13'0 0.0
2016-Jan-28 19:32N 51°55' E 004°13'0 0.0
2016-Jan-28 18:29N 51°55' E 004°13'0 0.0
2016-Jan-28 17:32N 51°55' E 004°13'0 0.0
2016-Jan-28 16:32N 51°55' E 004°13'0 0.0
2016-Jan-28 15:32N 51°55' E 004°13'0 0.0
2016-Jan-28 14:32N 51°55' E 004°13'0 0.0
2016-Jan-28 13:32N 51°55' E 004°13'0 0.0
2016-Jan-28 12:32N 51°55' E 004°13'0 0.0
2016-Jan-28 11:29N 51°55' E 004°13'0 0.0
2016-Jan-28 10:26N 51°55' E 004°13'0 0.0
2016-Jan-28 09:32N 51°55' E 004°13'0 0.0
2016-Jan-28 08:29N 51°55' E 004°13'0 0.0
2016-Jan-28 07:32N 51°55' E 004°13'0 0.0
2016-Jan-28 06:32N 51°55' E 004°13'0 0.0
2016-Jan-28 05:32N 51°55' E 004°13'0 0.0
2016-Jan-28 04:29N 51°55' E 004°13'0 0.0
2016-Jan-28 03:32N 51°55' E 004°13'0 0.0
2016-Jan-28 02:29N 51°55' E 004°13'0 0.0
2016-Jan-28 01:32N 51°55' E 004°13'0 0.0
2016-Jan-28 00:32N 51°55' E 004°13'2 2.4
2016-Jan-27 23:33N 51°57' E 004°10'8 8.2
2016-Jan-27 22:33N 51°60' E 003°58'7 7.2
2016-Jan-27 21:33N 51°60' E 003°46'55 6.8
2016-Jan-27 13:33N 51°37' E 002°26'1413.7
2016-Jan-27 12:33N 51°26' E 002°12'1312.7
2016-Jan-27 11:33N 51°14' E 002°04'1212.1
2016-Jan-27 10:34N 51°08' E 001°47'1111.1
2016-Jan-27 09:33N 51°00' E 001°35'1110.9
2016-Jan-27 08:33N 50°50' E 001°28'1211.6
2016-Jan-27 07:33N 50°40' E 001°18'  
Track history (hours):
 
Tides and Currents Weather Stations Pressure Air Temp Water Temp Dewpoint Dewpoint Depression Visibility Wind Speed Wind Dir Waves Ship Positions

Voidomatis

Last reported at 2016-Feb-05 08:08 UTC. Time now 2016-Feb-06 20:46 UTC.
Position N 50°31' E 000°04'.

Length 214 m; draft 12 m.

Type: Tanker. MMSI: 636012508.

Date/timePositionNaut miles runAvg speedWind from/ knotsBaromVisibWave heightAir tempDewpointWater temp
2016-Feb-05 08:08N 50°31' E 000°04'712.0
2016-Feb-05 07:32N 50°33' E 000°15'3712.0
2016-Feb-05 04:29N 50°50' E 001°07'1313.7
2016-Feb-05 03:33N 50°58' E 001°22'1414.0
2016-Feb-05 02:33N 51°08' E 001°38'1313.2
2016-Feb-05 01:33N 51°18' E 001°52'1010.4
2016-Feb-05 00:33N 51°24' E 002°05'1211.4
2016-Feb-04 23:32N 51°21' E 002°23'1211.5
2016-Feb-04 22:28N 51°23' E 002°42'9 9.5
2016-Feb-04 21:33N 51°25' E 002°56'10 9.7
2016-Feb-04 20:34N 51°24' E 003°11'9 9.3
2016-Feb-04 19:33N 51°25' E 003°26'8 8.1
2016-Feb-04 18:33N 51°26' E 003°39'8 7.9
2016-Feb-04 17:34N 51°21' E 003°48'9 8.7
2016-Feb-04 16:33N 51°26' E 003°59'8 7.6
2016-Feb-04 15:34N 51°24' E 004°11'5 5.0
2016-Feb-04 14:33N 51°21' E 004°17'0 0.0
2016-Feb-04 13:33N 51°21' E 004°17'3 2.7
2016-Feb-04 12:33N 51°18' E 004°19'2 2.3
2016-Feb-04 11:32N 51°16' E 004°21'0 0.0
2016-Feb-04 10:32N 51°16' E 004°21'0 0.0
2016-Feb-04 09:29N 51°16' E 004°21'0 0.0
2016-Feb-04 08:32N 51°16' E 004°21'0 0.0
2016-Feb-04 07:29N 51°16' E 004°21'0 0.0
2016-Feb-04 06:32N 51°16' E 004°21'0 0.0
2016-Feb-04 05:29N 51°16' E 004°21'0 0.0
2016-Feb-04 04:29N 51°16' E 004°21'0 0.0
2016-Feb-04 03:29N 51°16' E 004°21'0 0.0
2016-Feb-04 02:32N 51°16' E 004°21'0 0.0
2016-Feb-04 01:29N 51°16' E 004°21'0 0.0
2016-Feb-04 00:32N 51°16' E 004°21'0 0.0
2016-Feb-03 23:32N 51°16' E 004°21'0 0.0
2016-Feb-03 22:29N 51°16' E 004°21'0 0.0
2016-Feb-03 21:32N 51°16' E 004°21'0 0.0
2016-Feb-03 20:32N 51°16' E 004°21'0 0.0
2016-Feb-03 19:32N 51°16' E 004°21'0 0.0
2016-Feb-03 18:32N 51°16' E 004°21'0 0.0
2016-Feb-03 17:32N 51°16' E 004°21'0 0.0
2016-Feb-03 16:32N 51°16' E 004°21'0 0.0
2016-Feb-03 15:32N 51°16' E 004°21'0 0.0
2016-Feb-03 14:32N 51°16' E 004°21'0 0.0
2016-Feb-03 13:29N 51°16' E 004°21'0 0.0
2016-Feb-03 12:32N 51°16' E 004°21'0 0.0
2016-Feb-03 11:32N 51°16' E 004°21'0 0.0
2016-Feb-03 10:32N 51°16' E 004°21'0 0.0
2016-Feb-03 09:29N 51°16' E 004°21'0 0.0
2016-Feb-03 08:32N 51°16' E 004°21'0 0.0
2016-Feb-03 07:32N 51°16' E 004°21'0 0.0
2016-Feb-03 06:32N 51°16' E 004°21'0 0.0
2016-Feb-03 05:32N 51°16' E 004°21'0 0.0
2016-Feb-03 04:32N 51°16' E 004°21'0 0.0
2016-Feb-03 03:32N 51°16' E 004°21'0 0.0
2016-Feb-03 02:32N 51°16' E 004°21'0 0.0
2016-Feb-03 01:32N 51°16' E 004°21'0 0.0
2016-Feb-03 00:32N 51°16' E 004°21'0 0.0
2016-Feb-02 23:32N 51°16' E 004°21'0 0.0
2016-Feb-02 22:32N 51°16' E 004°21'0 0.0
2016-Feb-02 21:32N 51°16' E 004°21'0 0.0
2016-Feb-02 20:32N 51°16' E 004°21'0 0.0
2016-Feb-02 19:32N 51°16' E 004°21'0 0.0
2016-Feb-02 18:29N 51°16' E 004°21'0 0.0
2016-Feb-02 17:29N 51°16' E 004°21'0 0.0
2016-Feb-02 16:32N 51°16' E 004°21'0 0.0
2016-Feb-02 15:32N 51°16' E 004°21'0 0.0
2016-Feb-02 14:32N 51°16' E 004°21'0 0.0
2016-Feb-02 13:32N 51°16' E 004°21'0 0.0
2016-Feb-02 12:32N 51°16' E 004°21'0 0.0
2016-Feb-02 11:29N 51°16' E 004°21'0 0.0
2016-Feb-02 10:32N 51°16' E 004°21'0 0.0
2016-Feb-02 09:32N 51°16' E 004°21'0 0.0
2016-Feb-02 08:32N 51°16' E 004°21'3 3.1
2016-Feb-02 07:34N 51°19' E 004°19'2 2.0
2016-Feb-02 06:33N 51°21' E 004°17'1 0.9
2016-Feb-02 05:34N 51°21' E 004°16'8 7.6
2016-Feb-02 04:34N 51°22' E 004°04'7 7.2
2016-Feb-02 03:33N 51°21' E 003°53'1010.1
2016-Feb-02 02:33N 51°26' E 003°39'9 8.8
2016-Feb-02 01:34N 51°25' E 003°25'10 9.7
2016-Feb-02 00:34N 51°24' E 003°10'1010.3
2016-Feb-01 23:33N 51°25' E 002°53'7 6.4
2016-Feb-01 22:32N 51°26' E 002°43'5 4.8
2016-Feb-01 21:32N 51°30' E 002°47'4 3.6
2016-Feb-01 20:25N 51°27' E 002°44'4 4.3
2016-Feb-01 19:31N 51°26' E 002°38'0 0.1
2016-Feb-01 18:31N 51°26' E 002°38'0 0.1
2016-Feb-01 17:31N 51°26' E 002°38'0 0.0
2016-Feb-01 16:29N 51°26' E 002°38'0 0.0
2016-Feb-01 15:31N 51°26' E 002°38'0 0.1
2016-Feb-01 14:22N 51°26' E 002°38'0 0.0
2016-Feb-01 13:25N 51°26' E 002°38'0 0.0
2016-Feb-01 12:22N 51°26' E 002°38'0 0.1
2016-Feb-01 11:32N 51°26' E 002°38'0 0.1
2016-Feb-01 10:25N 51°26' E 002°38'0 0.1
2016-Feb-01 09:16N 51°26' E 002°38'0 0.0
2016-Feb-01 08:31N 51°26' E 002°38'0 0.0
2016-Feb-01 07:28N 51°26' E 002°38'0 0.0
2016-Feb-01 06:17N 51°26' E 002°38'0 0.0
2016-Feb-01 05:31N 51°26' E 002°38'0 0.0
2016-Feb-01 04:17N 51°26' E 002°38'0 0.0
2016-Feb-01 03:28N 51°26' E 002°38'0 0.0
2016-Feb-01 02:25N 51°26' E 002°38'0 0.0
2016-Jan-31 23:13N 51°26' E 002°38'0 0.2
2016-Jan-31 22:19N 51°25' E 002°38'0 0.1
2016-Jan-31 21:25N 51°26' E 002°38'0 0.1
2016-Jan-31 20:25N 51°26' E 002°38'0 0.1
2016-Jan-31 19:31N 51°26' E 002°38'0 0.0
2016-Jan-31 18:19N 51°26' E 002°38'0 0.0
2016-Jan-31 17:25N 51°26' E 002°38'0 0.1
2016-Jan-31 16:31N 51°26' E 002°38'0 0.0
2016-Jan-31 15:31N 51°26' E 002°38'0 0.0
2016-Jan-31 14:31N 51°26' E 002°38'0 0.2
2016-Jan-31 13:28N 51°26' E 002°37'0 0.0
2016-Jan-31 12:31N 51°25' E 002°37'0 0.0
2016-Jan-31 11:28N 51°26' E 002°37'0 0.1
2016-Jan-31 10:22N 51°26' E 002°38'0 0.1
2016-Jan-31 09:22N 51°26' E 002°38'0 0.0
2016-Jan-31 08:31N 51°26' E 002°38'0 0.0
2016-Jan-31 07:31N 51°26' E 002°38'0 0.0
2016-Jan-31 06:31N 51°26' E 002°38'0 0.0
2016-Jan-31 05:31N 51°26' E 002°38'0 0.0
2016-Jan-31 04:19N 51°25' E 002°38'0 0.0
2016-Jan-31 03:31N 51°26' E 002°38'0 0.0
2016-Jan-31 02:25N 51°25' E 002°38'0 0.1
2016-Jan-31 01:25N 51°25' E 002°38'0 0.0
2016-Jan-31 00:31N 51°25' E 002°38'0 0.0
2016-Jan-30 23:25N 51°25' E 002°38'0 0.0
2016-Jan-30 22:31N 51°25' E 002°38'0 0.0
2016-Jan-30 21:31N 51°25' E 002°38'0 0.0
2016-Jan-30 20:32N 51°25' E 002°38'0 0.0
2016-Jan-30 19:28N 51°26' E 002°38'0 0.0
2016-Jan-30 18:28N 51°26' E 002°38'0 0.0
2016-Jan-30 17:19N 51°26' E 002°38'0 0.0
2016-Jan-30 16:28N 51°25' E 002°38'0 0.0
2016-Jan-30 15:31N 51°25' E 002°38'0 0.0
2016-Jan-30 14:31N 51°25' E 002°38'0 0.1
2016-Jan-30 13:31N 51°25' E 002°38'0 0.0
2016-Jan-30 12:31N 51°25' E 002°38'0 0.0
2016-Jan-30 11:28N 51°25' E 002°38'3 3.3
2016-Jan-30 10:33N 51°27' E 002°42'4 4.3
2016-Jan-30 09:33N 51°31' E 002°44'6 5.8
2016-Jan-30 08:32N 51°36' E 002°49'5 5.2
2016-Jan-30 07:33N 51°40' E 002°53'5 4.7
2016-Jan-30 06:32N 51°43' E 002°59'3 3.1
2016-Jan-30 05:31N 51°45' E 003°03'2 2.2
2016-Jan-30 04:34N 51°47' E 003°06'2 2.2
2016-Jan-30 03:32N 51°48' E 003°09'3 3.5
2016-Jan-30 02:33N 51°50' E 003°13'16 4.6
2016-Jan-29 23:11N 52°02' E 003°28'4 5.8
2016-Jan-29 22:33N 52°03' E 003°34'6 5.8
2016-Jan-29 21:33N 52°03' E 003°43'6 5.8
2016-Jan-29 20:33N 52°03' E 003°53'4 3.6
2016-Jan-29 19:33N 52°01' E 003°58'7 6.7
2016-Jan-29 18:33N 51°58' E 004°07'4 4.4
2016-Jan-29 17:32N 51°55' E 004°13'0 0.0
2016-Jan-29 16:32N 51°55' E 004°13'0 0.0
2016-Jan-29 15:26N 51°55' E 004°13'0 0.0
2016-Jan-29 14:32N 51°55' E 004°13'0 0.0
2016-Jan-29 13:29N 51°55' E 004°13'0 0.0
2016-Jan-29 12:20N 51°55' E 004°13'0 0.0
2016-Jan-29 11:32N 51°55' E 004°13'0 0.0
2016-Jan-29 10:29N 51°55' E 004°13'0 0.0
2016-Jan-29 09:23N 51°55' E 004°13'0 0.0
2016-Jan-29 08:32N 51°55' E 004°13'0 0.0
2016-Jan-29 07:32N 51°55' E 004°13'0 0.0
2016-Jan-29 06:32N 51°55' E 004°13'0 0.0
2016-Jan-29 05:32N 51°55' E 004°13'0 0.0
2016-Jan-29 04:32N 51°55' E 004°13'0 0.0
2016-Jan-29 03:32N 51°55' E 004°13'0 0.0
2016-Jan-29 02:32N 51°55' E 004°13'0 0.0
2016-Jan-29 01:32N 51°55' E 004°13'0 0.0
2016-Jan-29 00:29N 51°55' E 004°13'0 0.0
2016-Jan-28 23:29N 51°55' E 004°13'0 0.0
2016-Jan-28 22:32N 51°55' E 004°13'0 0.0
2016-Jan-28 21:32N 51°55' E 004°13'0 0.0
2016-Jan-28 20:32N 51°55' E 004°13'0 0.0
2016-Jan-28 19:32N 51°55' E 004°13'0 0.0
2016-Jan-28 18:29N 51°55' E 004°13'0 0.0
2016-Jan-28 17:32N 51°55' E 004°13'0 0.0
2016-Jan-28 16:32N 51°55' E 004°13'0 0.0
2016-Jan-28 15:32N 51°55' E 004°13'0 0.0
2016-Jan-28 14:32N 51°55' E 004°13'0 0.0
2016-Jan-28 13:32N 51°55' E 004°13'0 0.0
2016-Jan-28 12:32N 51°55' E 004°13'0 0.0
2016-Jan-28 11:29N 51°55' E 004°13'0 0.0
2016-Jan-28 10:26N 51°55' E 004°13'0 0.0
2016-Jan-28 09:32N 51°55' E 004°13'0 0.0
2016-Jan-28 08:29N 51°55' E 004°13'0 0.0
2016-Jan-28 07:32N 51°55' E 004°13'0 0.0
2016-Jan-28 06:32N 51°55' E 004°13'0 0.0
2016-Jan-28 05:32N 51°55' E 004°13'0 0.0
2016-Jan-28 04:29N 51°55' E 004°13'0 0.0
2016-Jan-28 03:32N 51°55' E 004°13'0 0.0
2016-Jan-28 02:29N 51°55' E 004°13'0 0.0
2016-Jan-28 01:32N 51°55' E 004°13'0 0.0
2016-Jan-28 00:32N 51°55' E 004°13'2 2.4
2016-Jan-27 23:33N 51°57' E 004°10'8 8.2
2016-Jan-27 22:33N 51°60' E 003°58'7 7.2
2016-Jan-27 21:33N 51°60' E 003°46'55 6.8
2016-Jan-27 13:33N 51°37' E 002°26'1413.7
2016-Jan-27 12:33N 51°26' E 002°12'1312.7
2016-Jan-27 11:33N 51°14' E 002°04'1212.1
2016-Jan-27 10:34N 51°08' E 001°47'1111.1
2016-Jan-27 09:33N 51°00' E 001°35'1110.9
2016-Jan-27 08:33N 50°50' E 001°28'1211.6
2016-Jan-27 07:33N 50°40' E 001°18'  

Dump ship's entire track history